In Rescue
 
Open Full Screen Window  High Contrast Mode
Wind Gusting 20 knots
08
May 20, 2019 2:27 PM EDT
Weather Information
Wind Direction
  290 °
Wind Speed
  08 kt (9 mph)
Wind Gust
  20 kt (23 mph)
Altimeter
29.98 in
Visibility
10 SM
Temperature
13° C
55° F
Dewpoint
08° C
46° F
Humidity
72%
Sky Condition
Overcast @ 3,700 ft
Scattered @ 2,800 ft
VFR

METAR KDUH 201827Z AUTO 29008G20KT 10SM SCT028 OVC037 13/08 A2998 RMK AO2 T01320075

FAA Disclaimer: The data displayed is for advisory purposes only and is not to be used for flight planning or operations.